createdAt,value
2022-12-31T00:01:48.280Z,97.45
2022-12-31T00:04:15.893Z,97.34
2022-12-31T00:06:43.456Z,97.54
2022-12-31T00:09:11.228Z,97.41
2022-12-31T00:11:39.290Z,97.00
2022-12-31T00:14:10.235Z,96.88
2022-12-31T00:16:40.399Z,96.04
2022-12-31T00:19:13.651Z,96.33
2022-12-31T00:21:41.270Z,96.67
2022-12-31T00:24:09.454Z,96.11
2022-12-31T00:26:37.118Z,96.48
2022-12-31T00:29:05.586Z,96.41
2022-12-31T00:31:36.231Z,96.57
2022-12-31T00:34:04.275Z,96.31
2022-12-31T00:36:33.494Z,96.30
2022-12-31T00:39:02.125Z,96.40
2022-12-31T00:41:29.896Z,96.14
2022-12-31T00:43:57.743Z,95.58
2022-12-31T00:46:26.049Z,95.48
2022-12-31T00:48:55.583Z,95.02
2022-12-31T00:51:28.024Z,94.86
2022-12-31T00:53:55.887Z,94.65
2022-12-31T00:56:27.401Z,94.60
2022-12-31T00:58:55.046Z,94.50
2022-12-31T01:01:24.363Z,94.35
2022-12-31T01:03:53.440Z,93.97
2022-12-31T01:06:22.754Z,94.10
2022-12-31T01:08:51.095Z,93.98
2022-12-31T01:11:22.834Z,93.96
2022-12-31T01:13:53.030Z,93.32
2022-12-31T01:16:23.408Z,94.12
2022-12-31T01:18:51.445Z,93.64
2022-12-31T01:21:19.715Z,94.14
2022-12-31T01:23:48.909Z,94.33
2022-12-31T01:26:18.025Z,94.17
2022-12-31T01:28:45.590Z,93.87
2022-12-31T01:31:15.090Z,93.64
2022-12-31T01:33:43.110Z,93.58
2022-12-31T01:36:12.751Z,93.56
2022-12-31T01:38:40.536Z,93.82
2022-12-31T01:41:12.538Z,93.59
2022-12-31T01:43:49.474Z,93.01
2022-12-31T01:46:24.481Z,92.90
2022-12-31T01:48:54.288Z,92.56
2022-12-31T01:51:22.158Z,92.52
2022-12-31T01:53:50.359Z,92.48
2022-12-31T01:56:19.996Z,92.14
2022-12-31T01:58:50.638Z,92.40
2022-12-31T02:01:21.429Z,92.17
2022-12-31T02:03:49.075Z,92.22
2022-12-31T02:06:20.936Z,91.46
2022-12-31T02:08:48.815Z,91.21
2022-12-31T02:11:28.678Z,91.23
2022-12-31T02:13:58.906Z,91.51
2022-12-31T02:16:32.639Z,91.29
2022-12-31T02:19:07.495Z,91.29
2022-12-31T02:21:57.780Z,90.26
2022-12-31T02:24:40.994Z,90.16
2022-12-31T02:27:14.026Z,89.10
2022-12-31T02:30:05.932Z,89.06
2022-12-31T02:32:39.977Z,88.64
2022-12-31T02:35:11.927Z,87.91
2022-12-31T02:37:40.700Z,88.02
2022-12-31T02:40:11.308Z,87.95
2022-12-31T02:42:38.780Z,87.78
2022-12-31T02:45:09.260Z,87.87
2022-12-31T02:47:49.613Z,87.99
2022-12-31T02:50:27.696Z,86.79
2022-12-31T02:52:59.944Z,87.14
2022-12-31T02:55:35.116Z,86.22
2022-12-31T02:58:09.139Z,86.81
2022-12-31T03:01:00.373Z,86.83
2022-12-31T03:03:28.669Z,87.04
2022-12-31T03:05:56.793Z,87.19
2022-12-31T03:08:25.273Z,87.30
2022-12-31T03:10:52.961Z,86.65
2022-12-31T03:13:19.560Z,87.31
2022-12-31T03:15:48.429Z,87.21
2022-12-31T03:18:17.217Z,86.18
2022-12-31T03:21:03.885Z,86.04
2022-12-31T03:23:34.170Z,86.61
2022-12-31T03:26:01.135Z,86.47
2022-12-31T03:28:30.538Z,85.74
2022-12-31T03:31:01.396Z,86.06
2022-12-31T03:33:32.725Z,86.26
2022-12-31T03:36:00.239Z,85.88
2022-12-31T03:38:27.715Z,85.69
2022-12-31T03:40:55.217Z,85.69
2022-12-31T03:43:22.919Z,86.62
2022-12-31T03:45:52.309Z,85.68
2022-12-31T03:48:21.741Z,85.95
2022-12-31T03:50:49.325Z,86.33
2022-12-31T03:53:17.204Z,86.50
2022-12-31T03:55:44.915Z,86.44
2022-12-31T03:58:12.477Z,86.31
2022-12-31T04:00:40.016Z,86.43
2022-12-31T04:03:07.609Z,86.21
2022-12-31T04:05:36.518Z,86.68
2022-12-31T04:08:04.068Z,86.80
2022-12-31T04:10:32.012Z,86.02
2022-12-31T04:13:02.377Z,86.52
2022-12-31T04:15:29.961Z,86.60
2022-12-31T04:17:57.435Z,87.03
2022-12-31T04:20:25.028Z,86.63
2022-12-31T04:22:53.869Z,86.78
2022-12-31T04:25:21.428Z,86.48
2022-12-31T04:27:48.889Z,86.71
2022-12-31T04:30:16.577Z,86.47
2022-12-31T04:32:44.085Z,86.15
2022-12-31T04:35:12.249Z,85.62
2022-12-31T04:37:39.919Z,85.93
2022-12-31T04:40:10.001Z,85.81
2022-12-31T04:42:37.664Z,85.16
2022-12-31T04:45:06.064Z,85.23
2022-12-31T04:47:33.561Z,85.43
2022-12-31T04:50:01.039Z,84.49
2022-12-31T04:52:28.512Z,84.71
2022-12-31T04:54:56.001Z,84.44
2022-12-31T04:57:24.833Z,84.41
2022-12-31T04:59:52.316Z,84.17
2022-12-31T05:02:19.977Z,84.47
2022-12-31T05:04:47.593Z,84.10
2022-12-31T05:07:15.095Z,84.25
2022-12-31T05:09:42.579Z,83.42
2022-12-31T05:12:10.067Z,83.45
2022-12-31T05:14:38.893Z,83.77
2022-12-31T05:17:06.372Z,83.35
2022-12-31T05:19:33.875Z,83.44
2022-12-31T05:22:19.175Z,83.36
2022-12-31T05:24:46.655Z,83.51
2022-12-31T05:27:14.105Z,83.85
2022-12-31T05:29:42.893Z,83.88
2022-12-31T05:32:10.359Z,83.07
2022-12-31T05:34:37.830Z,83.43
2022-12-31T05:37:05.329Z,82.37
2022-12-31T05:39:32.824Z,83.24
2022-12-31T05:42:00.281Z,83.18
2022-12-31T05:44:27.857Z,82.98
2022-12-31T05:46:56.680Z,82.91
2022-12-31T05:49:24.215Z,83.51
2022-12-31T05:51:51.656Z,82.97
2022-12-31T05:54:19.309Z,83.19
2022-12-31T05:56:46.786Z,83.13
2022-12-31T05:59:14.263Z,82.88
2022-12-31T06:01:41.817Z,83.13
2022-12-31T06:04:10.767Z,83.68
2022-12-31T06:06:38.234Z,83.70
2022-12-31T06:09:05.793Z,83.35
2022-12-31T06:11:33.303Z,83.64
2022-12-31T06:14:00.772Z,83.96
2022-12-31T06:16:28.377Z,83.26
2022-12-31T06:18:56.208Z,83.22
2022-12-31T06:21:25.022Z,83.54
2022-12-31T06:23:52.495Z,83.54
2022-12-31T06:26:19.997Z,83.57
2022-12-31T06:28:47.456Z,82.95
2022-12-31T06:31:15.868Z,82.91
2022-12-31T06:33:43.978Z,83.08
2022-12-31T06:36:14.293Z,83.06
2022-12-31T06:38:44.205Z,82.43
2022-12-31T06:41:13.031Z,82.83
2022-12-31T06:43:41.523Z,83.06
2022-12-31T06:46:11.192Z,81.83
2022-12-31T06:48:39.335Z,82.18
2022-12-31T06:51:13.406Z,82.61
2022-12-31T06:53:45.880Z,82.99
2022-12-31T06:56:16.908Z,82.91
2022-12-31T06:58:45.861Z,82.47
2022-12-31T07:01:30.477Z,82.75
2022-12-31T07:04:02.050Z,82.94
2022-12-31T07:06:32.400Z,83.27
2022-12-31T07:09:06.553Z,82.79
2022-12-31T07:11:40.205Z,82.67
2022-12-31T07:14:19.461Z,82.96
2022-12-31T07:16:54.354Z,82.46
2022-12-31T07:19:29.998Z,82.81
2022-12-31T07:21:59.486Z,83.14
2022-12-31T07:24:29.286Z,83.40
2022-12-31T07:27:13.006Z,82.69
2022-12-31T07:29:49.691Z,82.81
2022-12-31T07:32:26.847Z,82.74
2022-12-31T07:35:01.603Z,82.83
2022-12-31T07:37:35.717Z,82.24
2022-12-31T07:40:12.363Z,82.60
2022-12-31T07:42:43.484Z,82.14
2022-12-31T07:45:16.035Z,82.16
2022-12-31T07:47:44.063Z,81.92
2022-12-31T07:50:15.351Z,81.73
2022-12-31T07:52:43.553Z,81.79
2022-12-31T07:55:12.597Z,81.57
2022-12-31T07:57:48.126Z,81.37
2022-12-31T08:00:16.937Z,81.02
2022-12-31T08:02:58.144Z,80.88
2022-12-31T08:05:29.355Z,80.93
2022-12-31T08:08:00.294Z,81.29
2022-12-31T08:10:34.530Z,80.83
2022-12-31T08:13:04.535Z,81.24
2022-12-31T08:15:32.566Z,81.16
2022-12-31T08:18:00.384Z,81.45
2022-12-31T08:20:28.205Z,81.37
2022-12-31T08:23:11.170Z,80.98
2022-12-31T08:25:48.514Z,81.46
2022-12-31T08:28:20.247Z,81.11
2022-12-31T08:30:55.104Z,80.59
2022-12-31T08:33:27.106Z,80.40
2022-12-31T08:36:05.142Z,80.95
2022-12-31T08:38:35.674Z,80.53
2022-12-31T08:41:11.963Z,80.51
2022-12-31T08:43:50.178Z,80.28
2022-12-31T08:46:20.626Z,80.34
2022-12-31T08:48:49.322Z,80.18
2022-12-31T08:51:21.106Z,80.90
2022-12-31T08:53:49.098Z,80.43
2022-12-31T08:56:26.543Z,80.27
2022-12-31T08:59:00.227Z,80.34
2022-12-31T09:01:29.417Z,80.28
2022-12-31T09:04:04.802Z,79.45
2022-12-31T09:06:35.119Z,79.84
2022-12-31T09:09:07.367Z,79.30
2022-12-31T09:11:50.891Z,80.08
2022-12-31T09:14:33.131Z,79.25
2022-12-31T09:17:04.697Z,79.83
2022-12-31T09:19:32.147Z,79.47
2022-12-31T09:22:00.174Z,79.82
2022-12-31T09:24:28.308Z,79.64
2022-12-31T09:27:05.711Z,79.40
2022-12-31T09:29:42.517Z,80.00
2022-12-31T09:32:19.113Z,79.31
2022-12-31T09:34:51.071Z,78.33
2022-12-31T09:37:23.283Z,78.61
2022-12-31T09:39:51.047Z,78.95
2022-12-31T09:42:48.308Z,78.32
2022-12-31T09:45:45.734Z,78.78
2022-12-31T09:48:47.022Z,78.81
2022-12-31T09:51:25.838Z,78.68
2022-12-31T09:54:24.927Z,78.48
2022-12-31T09:57:13.440Z,78.29
2022-12-31T09:59:47.581Z,78.30
2022-12-31T10:02:23.885Z,78.19
2022-12-31T10:05:00.513Z,78.74
2022-12-31T10:07:36.152Z,78.09
2022-12-31T10:10:11.657Z,77.65
2022-12-31T10:13:01.897Z,77.80
2022-12-31T10:15:38.225Z,77.90
2022-12-31T10:18:14.068Z,77.58
2022-12-31T10:20:52.542Z,77.66
2022-12-31T10:24:02.193Z,77.62
2022-12-31T10:26:42.392Z,77.37
2022-12-31T10:29:19.861Z,76.78
2022-12-31T10:31:54.592Z,76.92
2022-12-31T10:34:27.594Z,77.32
2022-12-31T10:36:56.836Z,76.35
2022-12-31T10:39:33.162Z,76.57
2022-12-31T10:42:45.103Z,76.96
2022-12-31T10:45:42.403Z,76.35
2022-12-31T10:48:38.284Z,75.82
2022-12-31T10:51:25.038Z,75.99
2022-12-31T10:54:10.699Z,75.82
2022-12-31T10:57:31.763Z,75.43
2022-12-31T11:00:26.263Z,75.76
2022-12-31T11:03:38.307Z,75.79
2022-12-31T11:06:27.117Z,75.44
2022-12-31T11:09:27.430Z,75.35
2022-12-31T11:12:02.947Z,75.64
2022-12-31T11:14:47.468Z,75.15
2022-12-31T11:17:29.546Z,74.91
2022-12-31T11:20:04.491Z,74.87
2022-12-31T11:22:43.044Z,74.32
2022-12-31T11:25:31.026Z,75.24
2022-12-31T11:28:16.059Z,74.22
2022-12-31T11:30:58.389Z,73.93
2022-12-31T11:33:34.067Z,74.07
2022-12-31T11:36:12.704Z,74.21
2022-12-31T11:38:44.321Z,74.30
2022-12-31T11:41:17.664Z,74.26
2022-12-31T11:43:52.291Z,74.35
2022-12-31T11:46:45.305Z,74.28
2022-12-31T11:49:21.612Z,73.91
2022-12-31T11:52:02.933Z,72.98
2022-12-31T11:54:51.391Z,73.73
2022-12-31T11:57:25.984Z,73.94
2022-12-31T11:59:57.041Z,73.57
2022-12-31T12:02:27.107Z,72.86
2022-12-31T12:04:56.059Z,72.62
2022-12-31T12:07:25.097Z,72.60
2022-12-31T12:09:53.993Z,72.03
2022-12-31T12:12:21.504Z,72.37
2022-12-31T12:14:53.975Z,71.88
2022-12-31T12:17:31.704Z,72.16
2022-12-31T12:20:03.142Z,71.96
2022-12-31T12:22:32.671Z,72.33
2022-12-31T12:25:05.654Z,72.65
2022-12-31T12:27:36.193Z,72.05
2022-12-31T12:30:11.618Z,71.62
2022-12-31T12:32:39.275Z,71.82
2022-12-31T12:35:17.727Z,72.02
2022-12-31T12:37:46.544Z,71.94
2022-12-31T12:40:21.940Z,71.63
2022-12-31T12:42:49.986Z,72.11
2022-12-31T12:45:19.341Z,71.39
2022-12-31T12:47:48.856Z,71.45
2022-12-31T12:50:18.004Z,71.23
2022-12-31T12:53:08.664Z,71.50
2022-12-31T12:55:42.862Z,71.73
2022-12-31T12:58:19.685Z,71.59
2022-12-31T13:00:52.453Z,71.75
2022-12-31T13:03:36.147Z,71.68
2022-12-31T13:06:15.335Z,72.19
2022-12-31T13:09:04.974Z,71.43
2022-12-31T13:11:37.926Z,71.70
2022-12-31T13:14:14.268Z,71.60
2022-12-31T13:16:46.215Z,71.78
2022-12-31T13:19:20.350Z,71.28
2022-12-31T13:21:54.162Z,71.04
2022-12-31T13:24:48.777Z,70.88
2022-12-31T13:27:21.218Z,70.09
2022-12-31T13:29:49.392Z,69.94
2022-12-31T13:32:20.036Z,70.17
2022-12-31T13:34:49.405Z,69.79
2022-12-31T13:37:26.020Z,69.51
2022-12-31T13:40:01.209Z,70.15
2022-12-31T13:42:33.711Z,69.84
2022-12-31T13:45:03.973Z,69.42
2022-12-31T13:47:35.159Z,69.19
2022-12-31T13:50:14.177Z,69.17
2022-12-31T13:52:47.455Z,69.43
2022-12-31T13:55:19.435Z,69.35
2022-12-31T13:57:50.122Z,69.59
2022-12-31T14:00:23.903Z,69.79
2022-12-31T14:02:57.978Z,68.60
2022-12-31T14:05:29.265Z,68.98
2022-12-31T14:07:59.140Z,68.53
2022-12-31T14:10:36.089Z,67.35
2022-12-31T14:13:14.176Z,68.49
2022-12-31T14:15:49.022Z,68.13
2022-12-31T14:18:24.579Z,68.39
2022-12-31T14:21:00.204Z,68.05
2022-12-31T14:23:34.893Z,67.93
2022-12-31T14:26:06.380Z,68.20
2022-12-31T14:28:44.663Z,67.09
2022-12-31T14:31:20.339Z,68.60
2022-12-31T14:33:52.975Z,68.18
2022-12-31T14:36:33.619Z,68.64
2022-12-31T14:39:13.913Z,68.38
2022-12-31T14:41:53.085Z,68.96
2022-12-31T14:44:28.460Z,68.35
2022-12-31T14:47:07.741Z,67.74
2022-12-31T14:49:42.160Z,68.70
2022-12-31T14:52:17.788Z,68.26
2022-12-31T14:54:45.443Z,69.23
2022-12-31T14:57:24.763Z,68.58
2022-12-31T14:59:53.729Z,68.89
2022-12-31T15:02:27.997Z,69.44
2022-12-31T15:05:11.121Z,68.74
2022-12-31T15:07:43.502Z,68.80
2022-12-31T15:10:16.631Z,68.99
2022-12-31T15:12:54.302Z,67.91
2022-12-31T15:15:33.139Z,67.91
2022-12-31T15:18:13.780Z,68.01
2022-12-31T15:21:10.396Z,68.67
2022-12-31T15:23:38.841Z,68.67
2022-12-31T15:26:08.421Z,69.31
2022-12-31T15:28:39.511Z,68.43
2022-12-31T15:31:18.550Z,68.22
2022-12-31T15:33:57.539Z,68.67
2022-12-31T15:36:26.731Z,69.07
2022-12-31T15:39:06.503Z,69.20
2022-12-31T15:41:42.909Z,69.98
2022-12-31T15:44:24.879Z,69.96
2022-12-31T15:46:56.360Z,70.58
2022-12-31T15:49:25.006Z,70.52
2022-12-31T15:52:00.446Z,70.43
2022-12-31T15:54:32.498Z,70.59
2022-12-31T15:57:05.649Z,71.17
2022-12-31T15:59:42.715Z,71.14
2022-12-31T16:02:21.239Z,71.18
2022-12-31T16:04:49.271Z,71.44
2022-12-31T16:07:17.109Z,71.47
2022-12-31T16:09:48.551Z,70.70
2022-12-31T16:12:20.616Z,71.25
2022-12-31T16:14:52.470Z,71.46
2022-12-31T16:17:27.798Z,71.48
2022-12-31T16:19:58.288Z,70.94
2022-12-31T16:22:28.104Z,71.57
2022-12-31T16:27:44.975Z,70.98
2022-12-31T16:30:29.414Z,70.61
2022-12-31T16:33:01.184Z,70.53
2022-12-31T16:35:30.795Z,70.49
2022-12-31T16:38:09.843Z,69.89
2022-12-31T16:40:37.462Z,70.08
2022-12-31T16:43:06.603Z,70.89
2022-12-31T16:45:37.015Z,70.66
2022-12-31T16:48:16.361Z,70.09
2022-12-31T16:50:46.664Z,70.18
2022-12-31T16:53:17.954Z,70.36
2022-12-31T16:55:52.754Z,70.81
2022-12-31T16:58:27.135Z,70.71
2022-12-31T17:00:57.336Z,70.14
2022-12-31T17:03:26.388Z,70.10
2022-12-31T17:06:00.362Z,70.43
2022-12-31T17:08:29.655Z,70.83
2022-12-31T17:10:57.522Z,70.55
2022-12-31T17:13:30.867Z,70.51
2022-12-31T17:16:00.486Z,70.67
2022-12-31T17:18:31.918Z,70.18
2022-12-31T17:21:07.961Z,71.06
2022-12-31T17:23:36.820Z,70.52
2022-12-31T17:26:10.539Z,70.41
2022-12-31T17:28:43.737Z,70.39
2022-12-31T17:31:32.043Z,70.96
2022-12-31T17:34:18.465Z,70.63
2022-12-31T17:36:56.714Z,71.58
2022-12-31T17:39:27.170Z,70.71
2022-12-31T17:42:00.427Z,70.89
2022-12-31T17:44:29.513Z,70.63
2022-12-31T17:46:59.327Z,70.60
2022-12-31T17:49:33.332Z,70.76
2022-12-31T17:52:01.217Z,71.34
2022-12-31T17:54:29.221Z,71.07
2022-12-31T17:56:57.141Z,71.03
2022-12-31T17:59:29.733Z,71.18
2022-12-31T18:02:02.235Z,70.91
2022-12-31T18:04:30.045Z,70.99
2022-12-31T18:06:57.638Z,70.78
2022-12-31T18:09:26.359Z,71.01
2022-12-31T18:11:56.947Z,71.27
2022-12-31T18:14:28.896Z,70.64
2022-12-31T18:16:56.463Z,71.02
2022-12-31T18:22:15.706Z,70.31
2022-12-31T18:24:43.331Z,70.06
2022-12-31T18:27:15.819Z,69.85
2022-12-31T18:29:43.375Z,69.16
2022-12-31T18:32:21.411Z,69.57
2022-12-31T18:34:50.623Z,69.51
2022-12-31T18:37:21.960Z,69.35
2022-12-31T18:39:50.099Z,69.50
2022-12-31T18:42:19.100Z,68.64
2022-12-31T18:44:46.970Z,68.24
2022-12-31T18:47:15.517Z,68.67
2022-12-31T18:49:44.737Z,68.17
2022-12-31T18:52:15.614Z,67.75
2022-12-31T18:54:43.369Z,68.10
2022-12-31T18:57:12.153Z,68.45
2022-12-31T18:59:39.823Z,68.27
2022-12-31T19:02:13.721Z,68.65
2022-12-31T19:04:41.392Z,68.84
2022-12-31T19:07:09.139Z,68.52
2022-12-31T19:09:46.702Z,68.98
2022-12-31T19:12:15.986Z,68.79
2022-12-31T19:14:43.587Z,69.08
2022-12-31T19:17:11.183Z,69.66
2022-12-31T19:19:38.699Z,69.04
2022-12-31T19:22:06.252Z,68.71
2022-12-31T19:24:33.823Z,68.17
2022-12-31T19:27:03.051Z,68.70
2022-12-31T19:29:30.629Z,69.43
2022-12-31T19:32:01.079Z,69.85
2022-12-31T19:34:28.768Z,69.47
2022-12-31T19:36:56.411Z,70.12
2022-12-31T19:39:23.979Z,70.40
2022-12-31T19:41:58.372Z,69.34
2022-12-31T19:44:27.980Z,69.68
2022-12-31T19:46:55.711Z,68.93
2022-12-31T19:49:23.379Z,68.94
2022-12-31T19:51:52.722Z,69.57
2022-12-31T19:54:20.399Z,69.66
2022-12-31T19:56:48.042Z,69.44
2022-12-31T19:59:17.334Z,69.92
2022-12-31T20:01:47.641Z,69.88
2022-12-31T20:04:15.341Z,70.14
2022-12-31T20:06:42.885Z,70.51
2022-12-31T20:09:12.087Z,70.90
2022-12-31T20:11:39.666Z,69.89
2022-12-31T20:14:07.239Z,70.05
2022-12-31T20:16:34.861Z,71.31
2022-12-31T20:19:04.154Z,71.29
2022-12-31T20:21:31.811Z,70.93
2022-12-31T20:24:23.915Z,71.04
2022-12-31T20:26:52.370Z,72.73
2022-12-31T20:29:20.222Z,72.62
2022-12-31T20:31:48.147Z,73.04
2022-12-31T20:34:18.609Z,72.27
2022-12-31T20:36:46.523Z,73.17
2022-12-31T20:39:15.153Z,73.51
2022-12-31T20:41:42.820Z,72.90
2022-12-31T20:44:10.707Z,73.02
2022-12-31T20:46:38.457Z,73.23
2022-12-31T20:49:06.423Z,72.93
2022-12-31T20:51:35.897Z,73.36
2022-12-31T20:54:05.257Z,73.82
2022-12-31T20:56:36.391Z,74.04
2022-12-31T20:59:04.794Z,73.85
2022-12-31T21:01:55.659Z,74.31
2022-12-31T21:04:20.460Z,74.59
2022-12-31T21:06:49.607Z,74.28
2022-12-31T21:09:17.201Z,74.63
2022-12-31T21:12:02.207Z,73.87
2022-12-31T21:14:29.793Z,73.75
2022-12-31T21:16:57.388Z,74.29
2022-12-31T21:19:24.946Z,74.67
2022-12-31T21:21:53.968Z,74.41
2022-12-31T21:24:25.744Z,74.50
2022-12-31T21:26:57.848Z,75.07
2022-12-31T21:29:27.842Z,74.93
2022-12-31T21:31:58.925Z,74.57
2022-12-31T21:34:26.576Z,74.31
2022-12-31T21:36:55.547Z,74.04
2022-12-31T21:39:23.254Z,74.23
2022-12-31T21:41:53.569Z,73.87
2022-12-31T21:44:22.349Z,73.84
2022-12-31T21:47:24.852Z,74.38
2022-12-31T21:49:38.064Z,73.41
2022-12-31T21:52:24.537Z,73.55
2022-12-31T21:55:06.098Z,73.88
2022-12-31T21:57:51.945Z,74.18
2022-12-31T22:00:42.708Z,73.45
2022-12-31T22:03:28.579Z,73.96
2022-12-31T22:06:02.862Z,74.31
2022-12-31T22:08:32.170Z,74.90
2022-12-31T22:10:59.710Z,75.53
2022-12-31T22:13:27.421Z,75.42
2022-12-31T22:16:03.917Z,74.41
2022-12-31T22:18:34.950Z,75.19
2022-12-31T22:21:04.160Z,75.74
2022-12-31T22:23:34.148Z,75.29
2022-12-31T22:26:02.205Z,76.32
2022-12-31T22:28:39.133Z,76.50
2022-12-31T22:31:08.118Z,77.65
2022-12-31T22:33:35.821Z,76.41
2022-12-31T22:36:05.579Z,77.60
2022-12-31T22:38:35.193Z,78.02
2022-12-31T22:41:07.713Z,78.52
2022-12-31T22:43:38.355Z,78.86
2022-12-31T22:46:10.707Z,79.47
2022-12-31T22:48:38.426Z,78.20
2022-12-31T22:51:06.340Z,78.71
2022-12-31T22:53:35.401Z,79.63
2022-12-31T22:56:04.978Z,79.41
2022-12-31T22:58:32.617Z,79.73
2022-12-31T23:01:00.281Z,80.30
2022-12-31T23:03:29.360Z,80.77
2022-12-31T23:05:56.908Z,80.21
2022-12-31T23:08:24.603Z,80.02
2022-12-31T23:11:02.119Z,80.54
2022-12-31T23:13:51.086Z,80.34
2022-12-31T23:16:39.602Z,80.86
2022-12-31T23:19:25.044Z,81.12
2022-12-31T23:22:10.843Z,80.57
2022-12-31T23:24:39.755Z,80.70
2022-12-31T23:27:09.303Z,80.09
2022-12-31T23:29:45.596Z,80.20
2022-12-31T23:32:14.709Z,80.76
2022-12-31T23:34:42.392Z,81.03
2022-12-31T23:37:09.918Z,80.71
2022-12-31T23:39:37.530Z,81.37
2022-12-31T23:42:05.315Z,81.11
2022-12-31T23:44:34.310Z,81.57
2022-12-31T23:47:01.878Z,81.31
2022-12-31T23:49:29.461Z,80.83
2022-12-31T23:51:57.159Z,81.55
2022-12-31T23:54:24.774Z,81.67
2022-12-31T23:56:52.388Z,82.35
2022-12-31T23:59:20.202Z,82.34
